KBKE

Baker City Municipal Airport

Baker City, Oregon, USA
KBKE 202103Z 2021/2118 14015KT P6SM VCSH BKN040 FM210200 32007KT P6SM OVC015 FM211600 32013G20KT P6SM SCT060
Issued Valid From Valid To
Jan-20 @ 21:03 UTC
(17 minutes ago)
Jan-20 @ 21:00 UTC
(20 minutes ago)
Jan-21 @ 18:00 UTC
(in 21 hours)
Jan-20 @ 21:00 to Jan-21 @ 02:00
KBKE 202103Z 2021/2118 14015KT P6SM VCSH BKN040
Wind Visibility Clouds
140° at 15 knots Greater than 6 miles
  • Broken at 4,000' AGL
From Jan-21 @ 02:00 to Jan-21 @ 16:00
FM210200 32007KT P6SM OVC015
Wind Visibility Clouds
320° at 7 knots Greater than 6 miles
  • Overcast at 1,500' AGL
From Jan-21 @ 16:00 to Jan-21 @ 18:00
FM211600 32013G20KT P6SM SCT060
Wind Visibility Clouds
320° at 13 knots
 Gusting to 20 knots
Greater than 6 miles
  • Scattered at 6,000' AGL
KBKE 202103Z 2021/2118 14015KT P6SM VCSH BKN040 FM210200 32007KT P6SM OVC015 FM211600 32013G20KT P6SM SCT060
Issued Jan-20 @ 21:03 UTC
(17 minutes ago)
Valid From Jan-20 @ 21:00 UTC
(20 minutes ago)
Valid To Jan-21 @ 18:00 UTC
(in 21 hours)
Jan-20 @ 21:00 - Jan-21 @ 02:00
Wind Visibility
140° at 15 knots Greater than 6 miles
Clouds
  • Broken at 4,000' AGL
From Jan-21 @ 02:00 - Jan-21 @ 16:00
Wind Visibility
320° at 7 knots Greater than 6 miles
Clouds
  • Overcast at 1,500' AGL
From Jan-21 @ 16:00 - Jan-21 @ 18:00
Wind Visibility
320° at 13 knots
 Gusting to 20 knots
Greater than 6 miles
Clouds
  • Scattered at 6,000' AGL